createdAt,value
2023-03-16T00:01:39.193Z,98837.78
2023-03-16T00:04:40.900Z,98828.16
2023-03-16T00:07:44.040Z,98826.34
2023-03-16T00:10:47.438Z,98822.03
2023-03-16T00:13:49.141Z,98836.03
2023-03-16T00:16:50.752Z,98836.94
2023-03-16T00:19:57.169Z,98826.44
2023-03-16T00:23:00.831Z,98833.44
2023-03-16T00:26:03.526Z,98836.03
2023-03-16T00:29:05.179Z,98831.66
2023-03-16T00:32:07.136Z,98831.63
2023-03-16T00:35:09.853Z,98826.34
2023-03-16T00:38:13.225Z,98834.22
2023-03-16T00:41:15.688Z,98831.59
2023-03-16T00:44:17.488Z,98835.97
2023-03-16T00:47:19.073Z,98835.09
2023-03-16T00:50:22.469Z,98828.09
2023-03-16T00:53:25.536Z,98830.75
2023-03-16T00:56:27.397Z,98829.84
2023-03-16T00:59:30.509Z,98822.81
2023-03-16T01:02:32.753Z,98829.81
2023-03-16T01:05:34.241Z,98819.31
2023-03-16T01:08:37.736Z,98816.69
2023-03-16T01:11:39.601Z,98816.72
2023-03-16T01:14:41.626Z,98807.13
2023-03-16T01:17:43.218Z,98809.78
2023-03-16T01:20:50.607Z,98801.03
2023-03-16T01:23:53.898Z,98795.81
2023-03-16T01:26:55.778Z,98783.59
2023-03-16T01:29:57.254Z,98781.84
2023-03-16T01:32:59.267Z,98776.59
2023-03-16T01:36:02.490Z,98791.47
2023-03-16T01:39:11.276Z,98787.97
2023-03-16T01:42:17.890Z,98790.63
2023-03-16T01:45:38.360Z,98793.25
2023-03-16T01:48:43.024Z,98795.00
2023-03-16T01:51:46.728Z,98793.25
2023-03-16T01:54:52.862Z,98795.00
2023-03-16T01:57:54.875Z,98801.13
2023-03-16T02:00:58.112Z,98796.72
2023-03-16T02:04:05.997Z,98798.50
2023-03-16T02:07:09.045Z,98800.22
2023-03-16T02:10:13.275Z,98778.41
2023-03-16T02:13:20.481Z,98777.50
2023-03-16T02:16:22.852Z,98775.75
2023-03-16T02:19:30.527Z,98765.25
2023-03-16T02:22:36.238Z,98761.78
2023-03-16T02:25:41.619Z,98753.91
2023-03-16T02:28:48.568Z,98751.28
2023-03-16T02:31:52.386Z,98749.53
2023-03-16T02:34:55.361Z,98745.19
2023-03-16T02:37:56.964Z,98738.19
2023-03-16T02:41:10.732Z,98734.69
2023-03-16T02:44:16.093Z,98732.06
2023-03-16T02:47:24.619Z,98732.06
2023-03-16T02:50:26.449Z,98719.81
2023-03-16T02:53:28.364Z,98716.34
2023-03-16T02:56:32.562Z,98714.63
2023-03-16T02:59:34.511Z,98721.59
2023-03-16T03:02:38.216Z,98718.97
2023-03-16T03:05:40.160Z,98711.09
2023-03-16T03:08:42.630Z,98712.88
2023-03-16T03:11:44.520Z,98699.75
2023-03-16T03:14:46.157Z,98697.13
2023-03-16T03:17:52.940Z,98704.97
2023-03-16T03:20:55.408Z,98713.72
2023-03-16T03:23:56.931Z,98707.59
2023-03-16T03:27:05.702Z,98704.13
2023-03-16T03:30:10.463Z,98698.00
2023-03-16T03:33:13.497Z,98706.75
2023-03-16T03:36:15.164Z,98719.84
2023-03-16T03:39:18.942Z,98713.72
2023-03-16T03:42:26.238Z,98704.97
2023-03-16T03:45:28.115Z,98705.88
2023-03-16T03:48:31.074Z,98707.63
2023-03-16T03:51:33.089Z,98721.59
2023-03-16T03:54:41.419Z,98718.97
2023-03-16T03:57:49.686Z,98724.22
2023-03-16T04:00:52.114Z,98723.34
2023-03-16T04:03:55.421Z,98710.22
2023-03-16T04:06:57.208Z,98719.84
2023-03-16T04:09:58.998Z,98711.09
2023-03-16T04:13:11.914Z,98712.88
2023-03-16T04:16:16.482Z,98717.22
2023-03-16T04:19:22.729Z,98708.50
2023-03-16T04:22:25.367Z,98704.13
2023-03-16T04:25:27.484Z,98708.50
2023-03-16T04:28:29.832Z,98698.03
2023-03-16T04:31:32.443Z,98695.41
2023-03-16T04:34:36.238Z,98693.66
2023-03-16T04:37:41.387Z,98691.91
2023-03-16T04:40:43.845Z,98698.91
2023-03-16T04:43:50.612Z,98701.50
2023-03-16T04:46:55.862Z,98686.66
2023-03-16T04:50:02.777Z,98684.94
2023-03-16T04:53:05.499Z,98693.66
2023-03-16T04:56:08.577Z,98690.16
2023-03-16T04:59:12.005Z,98698.88
2023-03-16T05:02:22.984Z,98704.13
2023-03-16T05:05:26.350Z,98705.00
2023-03-16T05:08:27.960Z,98698.00
2023-03-16T05:11:29.896Z,98698.88
2023-03-16T05:14:36.213Z,98694.50
2023-03-16T05:17:55.218Z,98691.88
2023-03-16T05:20:58.804Z,98690.16
2023-03-16T05:24:08.049Z,98696.25
2023-03-16T05:27:10.115Z,98698.88
2023-03-16T05:30:13.145Z,98699.75
2023-03-16T05:33:14.958Z,98699.75
2023-03-16T05:36:21.849Z,98679.66
2023-03-16T05:39:28.712Z,98676.16
2023-03-16T05:42:30.344Z,98683.16
2023-03-16T05:45:36.157Z,98680.53
2023-03-16T05:48:43.752Z,98684.03
2023-03-16T05:51:50.712Z,98691.00
2023-03-16T05:54:52.501Z,98686.63
2023-03-16T05:57:54.260Z,98684.88
2023-03-16T06:00:59.088Z,98683.13
2023-03-16T06:04:05.527Z,98677.00
2023-03-16T06:07:12.287Z,98677.84
2023-03-16T06:10:15.042Z,98670.84
2023-03-16T06:13:17.472Z,98664.72
2023-03-16T06:16:19.601Z,98669.09
2023-03-16T06:19:21.725Z,98666.44
2023-03-16T06:22:30.447Z,98662.94
2023-03-16T06:25:32.639Z,98650.69
2023-03-16T06:28:34.872Z,98656.78
2023-03-16T06:31:36.776Z,98655.88
2023-03-16T06:34:38.919Z,98659.34
2023-03-16T06:37:43.199Z,98657.56
2023-03-16T06:41:03.995Z,98654.94
2023-03-16T06:44:09.048Z,98658.41
2023-03-16T06:47:15.475Z,98651.38
2023-03-16T06:50:17.483Z,98662.66
2023-03-16T06:53:22.106Z,98661.75
2023-03-16T06:56:24.240Z,98668.72
2023-03-16T06:59:26.246Z,98675.63
2023-03-16T07:02:28.305Z,98665.88
2023-03-16T07:05:30.370Z,98674.59
2023-03-16T07:08:35.218Z,98671.94
2023-03-16T07:11:37.690Z,98680.72
2023-03-16T07:14:39.430Z,98682.50
2023-03-16T07:17:44.037Z,98694.72
2023-03-16T07:20:46.858Z,98699.91
2023-03-16T07:23:51.971Z,98698.13
2023-03-16T07:26:59.354Z,98698.06
2023-03-16T07:30:06.188Z,98700.59
2023-03-16T07:33:11.935Z,98702.19
2023-03-16T07:36:14.510Z,98702.06
2023-03-16T07:39:23.914Z,98696.78
2023-03-16T07:42:29.458Z,98693.94
2023-03-16T07:45:38.797Z,98702.53
2023-03-16T07:48:42.547Z,98703.25
2023-03-16T07:51:44.351Z,98705.78
2023-03-16T07:54:48.922Z,98698.81
2023-03-16T07:57:51.209Z,98706.75
2023-03-16T08:01:01.713Z,98702.22
2023-03-16T08:04:03.601Z,98705.63
2023-03-16T08:07:05.691Z,98703.72
2023-03-16T08:10:24.121Z,98700.09
2023-03-16T08:13:56.634Z,98701.66
2023-03-16T08:17:01.837Z,98699.84
2023-03-16T08:20:08.444Z,98698.00
2023-03-16T08:23:12.048Z,98701.41
2023-03-16T08:26:18.328Z,98696.91
2023-03-16T08:29:21.312Z,98703.91
2023-03-16T08:32:23.544Z,98712.56
2023-03-16T08:35:25.975Z,98712.56
2023-03-16T08:38:28.017Z,98711.56
2023-03-16T08:41:35.070Z,98715.78
2023-03-16T08:44:41.563Z,98713.03
2023-03-16T08:47:43.612Z,98701.50
2023-03-16T08:50:47.062Z,98703.09
2023-03-16T08:53:48.624Z,98699.47
2023-03-16T08:56:51.929Z,98696.75
2023-03-16T08:59:53.742Z,98696.69
2023-03-16T09:02:55.757Z,98691.22
2023-03-16T09:06:00.964Z,98699.84
2023-03-16T09:09:02.649Z,98691.41
2023-03-16T09:12:06.438Z,98702.56
2023-03-16T09:15:10.179Z,98696.94
2023-03-16T09:18:11.974Z,98693.41
2023-03-16T09:21:14.005Z,98690.19
2023-03-16T09:24:15.853Z,98686.47
2023-03-16T09:27:19.016Z,98679.75
2023-03-16T09:30:20.886Z,98689.41
2023-03-16T09:33:22.944Z,98694.59
2023-03-16T09:36:24.503Z,98688.00
2023-03-16T09:39:26.229Z,98697.63
2023-03-16T09:42:33.988Z,98694.38
2023-03-16T09:45:38.675Z,98696.69
2023-03-16T09:48:41.240Z,98692.84
2023-03-16T09:51:44.844Z,98691.84
2023-03-16T09:54:49.549Z,98693.38
2023-03-16T09:57:53.526Z,98682.09
2023-03-16T10:00:59.693Z,98697.84
2023-03-16T10:04:19.732Z,98681.66
2023-03-16T10:07:32.383Z,98683.47
2023-03-16T10:10:47.611Z,98679.84
2023-03-16T10:13:53.160Z,98675.66
2023-03-16T10:16:57.041Z,98677.25
2023-03-16T10:20:01.181Z,98672.72
2023-03-16T10:23:13.640Z,98673.28
2023-03-16T10:26:20.174Z,98674.34
2023-03-16T10:29:23.631Z,98674.75
2023-03-16T10:32:30.634Z,98676.06
2023-03-16T10:35:38.260Z,98677.38
2023-03-16T10:38:41.250Z,98664.78
2023-03-16T10:41:44.033Z,98654.84
2023-03-16T10:44:47.652Z,98657.47
2023-03-16T10:47:50.063Z,98649.75
2023-03-16T10:50:54.530Z,98644.72
2023-03-16T10:54:07.015Z,98648.00
2023-03-16T10:57:15.568Z,98644.94
2023-03-16T11:00:21.257Z,98648.94
2023-03-16T11:03:27.501Z,98654.63
2023-03-16T11:06:32.544Z,98652.66
2023-03-16T11:09:35.543Z,98648.66
2023-03-16T11:12:39.873Z,98641.41
2023-03-16T11:15:47.810Z,98633.72
2023-03-16T11:18:53.573Z,98620.78
2023-03-16T11:21:57.583Z,98622.63
2023-03-16T11:25:07.307Z,98634.16
2023-03-16T11:28:13.289Z,98623.97
2023-03-16T11:31:20.875Z,98618.78
2023-03-16T11:34:27.475Z,98619.56
2023-03-16T11:37:35.695Z,98612.34
2023-03-16T11:40:41.456Z,98605.91
2023-03-16T11:43:53.262Z,98604.56
2023-03-16T11:47:01.607Z,98574.28
2023-03-16T11:50:09.985Z,98592.78
2023-03-16T11:53:17.426Z,98582.91
2023-03-16T11:56:24.063Z,98587.56
2023-03-16T11:59:34.118Z,98597.25
2023-03-16T12:02:45.282Z,98578.78
2023-03-16T12:05:54.522Z,98578.84
2023-03-16T12:09:23.789Z,98587.97
2023-03-16T12:12:29.733Z,98588.28
2023-03-16T12:15:36.263Z,98571.03
2023-03-16T12:18:43.713Z,98559.75
2023-03-16T12:21:48.583Z,98569.50
2023-03-16T12:24:50.489Z,98558.47
2023-03-16T12:27:55.465Z,98566.50
2023-03-16T12:31:02.189Z,98560.19
2023-03-16T12:34:19.491Z,98556.59
2023-03-16T12:37:32.061Z,98540.41
2023-03-16T12:40:40.589Z,98538.81
2023-03-16T12:43:47.687Z,98527.50
2023-03-16T12:46:53.540Z,98526.41
2023-03-16T12:50:03.800Z,98522.75
2023-03-16T12:53:05.874Z,98535.91
2023-03-16T12:56:12.326Z,98524.59
2023-03-16T12:59:16.896Z,98517.72
2023-03-16T13:02:20.324Z,98522.31
2023-03-16T13:05:31.475Z,98510.13
2023-03-16T13:08:42.675Z,98510.84
2023-03-16T13:11:50.017Z,98505.63
2023-03-16T13:14:55.907Z,98490.06
2023-03-16T13:18:17.597Z,98487.16
2023-03-16T13:21:21.684Z,98484.69
2023-03-16T13:24:26.933Z,98478.25
2023-03-16T13:27:30.148Z,98480.66
2023-03-16T13:30:33.166Z,98475.47
2023-03-16T13:33:38.345Z,98477.19
2023-03-16T13:36:41.833Z,98473.00
2023-03-16T13:39:51.574Z,98475.59
2023-03-16T13:42:55.383Z,98480.16
2023-03-16T13:45:57.475Z,98469.78
2023-03-16T13:49:02.402Z,98457.59
2023-03-16T13:52:06.009Z,98459.38
2023-03-16T13:55:14.743Z,98452.28
2023-03-16T13:58:20.716Z,98441.47
2023-03-16T14:01:24.857Z,98433.44
2023-03-16T14:04:28.805Z,98420.75
2023-03-16T14:07:36.724Z,98413.34
2023-03-16T14:10:40.494Z,98417.72
2023-03-16T14:13:42.874Z,98410.53
2023-03-16T14:16:45.648Z,98409.94
2023-03-16T14:19:48.267Z,98417.91
2023-03-16T14:22:52.784Z,98418.84
2023-03-16T14:25:54.817Z,98404.81
2023-03-16T14:28:58.495Z,98404.91
2023-03-16T14:32:00.450Z,98391.84
2023-03-16T14:35:03.952Z,98385.00
2023-03-16T14:38:28.570Z,98385.25
2023-03-16T14:41:31.752Z,98380.97
2023-03-16T14:44:35.640Z,98369.53
2023-03-16T14:47:40.789Z,98370.66
2023-03-16T14:50:45.052Z,98365.28
2023-03-16T14:53:48.723Z,98361.31
2023-03-16T14:56:51.183Z,98355.72
2023-03-16T14:59:52.917Z,98353.75
2023-03-16T15:02:58.102Z,98358.31
2023-03-16T15:06:01.534Z,98338.97
2023-03-16T15:09:04.627Z,98332.06
2023-03-16T15:12:13.042Z,98335.84
2023-03-16T15:15:16.152Z,98324.75
2023-03-16T15:18:17.859Z,98332.72
2023-03-16T15:21:21.142Z,98329.47
2023-03-16T15:24:24.218Z,98329.59
2023-03-16T15:27:28.119Z,98329.53
2023-03-16T15:30:30.757Z,98323.22
2023-03-16T15:33:32.565Z,98304.78
2023-03-16T15:36:34.237Z,98302.13
2023-03-16T15:39:37.916Z,98282.69
2023-03-16T15:42:39.553Z,98277.47
2023-03-16T15:45:41.322Z,98285.44
2023-03-16T15:48:44.351Z,98274.88
2023-03-16T15:51:46.185Z,98275.75
2023-03-16T15:54:49.086Z,98283.84
2023-03-16T15:57:57.162Z,98283.84
2023-03-16T16:00:59.961Z,98276.03
2023-03-16T16:04:01.716Z,98275.16
2023-03-16T16:07:07.361Z,98267.19
2023-03-16T16:10:12.515Z,98264.56
2023-03-16T16:13:18.111Z,98258.38
2023-03-16T16:16:20.240Z,98253.91
2023-03-16T16:19:22.204Z,98241.50
2023-03-16T16:22:24.718Z,98239.66
2023-03-16T16:25:32.840Z,98232.72
2023-03-16T16:28:35.128Z,98233.66
2023-03-16T16:31:36.875Z,98227.66
2023-03-16T16:34:38.712Z,98221.44
2023-03-16T16:37:40.744Z,98217.19
2023-03-16T16:40:46.406Z,98222.72
2023-03-16T16:43:48.137Z,98228.28
2023-03-16T16:46:50.880Z,98215.09
2023-03-16T16:49:52.872Z,98219.59
2023-03-16T16:52:55.549Z,98222.50
2023-03-16T16:55:58.921Z,98219.06
2023-03-16T16:59:02.540Z,98217.41
2023-03-16T17:02:18.626Z,98219.31
2023-03-16T17:05:21.542Z,98214.09
2023-03-16T17:08:23.727Z,98216.19
2023-03-16T17:11:30.936Z,98220.94
2023-03-16T17:14:33.040Z,98222.88
2023-03-16T17:17:34.756Z,98218.72
2023-03-16T17:20:36.489Z,98219.81
2023-03-16T17:23:38.584Z,98212.78
2023-03-16T17:26:43.841Z,98215.50
2023-03-16T17:29:45.949Z,98213.97
2023-03-16T17:32:47.743Z,98213.09
2023-03-16T17:35:49.397Z,98216.00
2023-03-16T17:38:51.242Z,98217.72
2023-03-16T17:41:57.454Z,98222.94
2023-03-16T17:44:59.993Z,98221.19
2023-03-16T17:48:02.414Z,98214.38
2023-03-16T17:51:07.241Z,98220.03
2023-03-16T17:54:09.000Z,98218.16
2023-03-16T17:57:16.498Z,98213.94
2023-03-16T18:00:19.449Z,98216.66
2023-03-16T18:03:22.196Z,98207.84
2023-03-16T18:06:25.563Z,98210.78
2023-03-16T18:09:28.893Z,98205.56
2023-03-16T18:12:32.768Z,98196.00
2023-03-16T18:15:36.478Z,98194.34
2023-03-16T18:18:40.270Z,98195.09
2023-03-16T18:21:42.485Z,98196.81
2023-03-16T18:24:45.017Z,98196.25
2023-03-16T18:27:48.210Z,98198.97
2023-03-16T18:30:54.225Z,98193.72
2023-03-16T18:33:56.962Z,98191.78
2023-03-16T18:37:00.820Z,98193.59
2023-03-16T18:40:02.495Z,98193.53
2023-03-16T18:43:06.437Z,98189.09
2023-03-16T18:46:11.758Z,98195.19
2023-03-16T18:49:14.973Z,98182.97
2023-03-16T18:52:18.846Z,98186.75
2023-03-16T18:55:21.482Z,98182.44
2023-03-16T18:58:24.916Z,98185.06
2023-03-16T19:01:27.717Z,98189.47
2023-03-16T19:04:30.791Z,98188.47
2023-03-16T19:07:33.891Z,98192.22
2023-03-16T19:10:37.780Z,98194.59
2023-03-16T19:13:42.182Z,98209.59
2023-03-16T19:16:44.435Z,98204.25
2023-03-16T19:19:46.150Z,98203.69
2023-03-16T19:22:49.248Z,98204.66
2023-03-16T19:25:51.519Z,98193.25
2023-03-16T19:28:54.577Z,98196.75
2023-03-16T19:31:56.632Z,98190.16
2023-03-16T19:34:58.189Z,98188.25
2023-03-16T19:37:59.915Z,98195.09
2023-03-16T19:41:02.305Z,98190.84
2023-03-16T19:44:08.362Z,98181.56
2023-03-16T19:47:21.756Z,98182.53
2023-03-16T19:50:24.318Z,98184.09
2023-03-16T19:53:25.942Z,98177.00
2023-03-16T19:56:27.580Z,98162.81
2023-03-16T19:59:32.687Z,98149.53
2023-03-16T20:02:36.335Z,98149.00
2023-03-16T20:05:42.270Z,98149.91
2023-03-16T20:08:44.258Z,98147.97
2023-03-16T20:11:47.136Z,98147.03
2023-03-16T20:14:51.272Z,98147.84
2023-03-16T20:17:52.988Z,98144.13
2023-03-16T20:20:54.616Z,98146.91
2023-03-16T20:23:56.547Z,98133.78
2023-03-16T20:26:58.228Z,98134.84
2023-03-16T20:30:01.584Z,98126.66
2023-03-16T20:33:03.680Z,98138.97
2023-03-16T20:36:08.966Z,98136.44
2023-03-16T20:39:10.909Z,98131.16
2023-03-16T20:42:15.824Z,98132.63
2023-03-16T20:45:20.909Z,98132.69
2023-03-16T20:48:25.508Z,98137.22
2023-03-16T20:51:27.471Z,98133.00
2023-03-16T20:54:29.116Z,98135.91
2023-03-16T20:57:31.364Z,98133.19
2023-03-16T21:00:36.493Z,98127.03
2023-03-16T21:03:39.430Z,98117.28
2023-03-16T21:06:41.432Z,98120.00
2023-03-16T21:09:49.906Z,98115.53
2023-03-16T21:12:53.381Z,98116.56
2023-03-16T21:15:58.102Z,98108.69
2023-03-16T21:18:59.830Z,98108.00
2023-03-16T21:22:01.958Z,98106.34
2023-03-16T21:25:03.791Z,98101.91
2023-03-16T21:28:05.716Z,98093.53
2023-03-16T21:31:11.217Z,98086.47
2023-03-16T21:34:21.962Z,98085.78
2023-03-16T21:37:26.429Z,98073.34
2023-03-16T21:40:28.436Z,98078.75
2023-03-16T21:43:31.273Z,98077.59
2023-03-16T21:46:34.483Z,98071.50
2023-03-16T21:49:36.365Z,98071.75
2023-03-16T21:52:41.355Z,98070.44
2023-03-16T21:55:43.086Z,98063.13
2023-03-16T21:58:45.790Z,98061.25
2023-03-16T22:02:01.084Z,98054.06
2023-03-16T22:05:12.019Z,98056.91
2023-03-16T22:08:15.034Z,98060.41
2023-03-16T22:11:18.028Z,98050.03
2023-03-16T22:14:20.029Z,98061.22
2023-03-16T22:17:23.266Z,98042.13
2023-03-16T22:20:27.219Z,98046.56
2023-03-16T22:23:31.874Z,98027.31
2023-03-16T22:26:33.625Z,98030.91
2023-03-16T22:29:36.515Z,98034.59
2023-03-16T22:32:39.594Z,98033.44
2023-03-16T22:35:42.207Z,98034.47
2023-03-16T22:38:44.360Z,98011.75
2023-03-16T22:41:46.427Z,98022.16
2023-03-16T22:44:48.323Z,98006.41
2023-03-16T22:47:51.837Z,98009.09
2023-03-16T22:50:54.382Z,98018.59
2023-03-16T22:53:59.672Z,98015.25
2023-03-16T22:57:01.675Z,98017.72
2023-03-16T23:00:07.427Z,98009.09
2023-03-16T23:03:15.473Z,98002.81
2023-03-16T23:06:18.399Z,98007.31
2023-03-16T23:09:21.894Z,98008.25
2023-03-16T23:12:23.938Z,98000.34
2023-03-16T23:15:27.742Z,98003.88
2023-03-16T23:18:31.032Z,97992.56
2023-03-16T23:21:33.252Z,97998.78
2023-03-16T23:24:36.208Z,97989.00
2023-03-16T23:27:38.236Z,97991.69
2023-03-16T23:30:40.054Z,97983.16
2023-03-16T23:33:43.614Z,97982.09
2023-03-16T23:36:45.591Z,97983.94
2023-03-16T23:39:47.362Z,97985.00
2023-03-16T23:42:50.107Z,97988.63
2023-03-16T23:45:52.232Z,97993.00
2023-03-16T23:48:57.382Z,97985.94
2023-03-16T23:52:10.181Z,97986.09
2023-03-16T23:55:18.859Z,97977.13
2023-03-16T23:58:21.026Z,97977.13
